Airfield :
LOGIN :

Register | Disclaimer

   EN    FR    IT 

 










Legend :    VFR   Marginal VFR   IFR   Intensive IFR   Very Intensive IFR
Visi :
Ceiling :
>= 8 km
>= 3000ft
5 to 8 km
1000 to 3000 ft
1500m to 5 km
500 to 1000 ft
800 to 1500m
200 to 500 ft
< 800m
< 200 ft
Symbols :   Thunderstorms  Fog  Heavy snow  Heavy precipitations  Wind > 20 kt
SIGMETs :     Misc.  Thunderstorms  Icing  Turbulence  Mountain Waves  Volcanic Ashes






- Airport Elevation : 74 ft
- IATA code : LRH


LFBH - La Rochelle Ile de Ré

CURRENT METAR :
  • 130330Z AUTO 02010KT CAVOK 15/09 Q1022 NOSIG

EXPIRED METARs :
  • 130300Z AUTO 02010KT CAVOK 16/09 Q1022 NOSIG
  • 130230Z AUTO 02011KT CAVOK 16/09 Q1022 NOSIG
  • 130200Z AUTO 02010KT CAVOK 17/09 Q1022 NOSIG
  • 130130Z AUTO 01010KT CAVOK 17/09 Q1022 NOSIG
  • 130100Z AUTO 01010KT CAVOK 18/09 Q1022 NOSIG

TAF TAF LFBH
Valid from the 13 at 00:00 until the 14 at 00:00 UTC


122300Z 1300/1324 01010KT CAVOK
BECMG 1310/1312 31010KT
TEMPO 1314/1318 29015G25KT
BECMG 1316/1318 30020KT
BECMG 1321/1323 33010KT
ATIS : +33 5 46 00 13 92



MET'MAP, your aeronautical weather chart ! - Copyright ORBIFLY December 2007 - Disclaimer

ORBIFLY MET'MAP TEAM :

Programming & Development : Alexandra Zaïnal
Concept & original design : Baudouin d'Aumeries
Assistance for programming : Marc-Olivier Méhu
Technical & hardware support : Manuel Goepfert

Contact : metmap@orbifly.com




SOURCES & CREDITS :

   NOAA